createdAt,value
2023-04-13T00:00:22.451Z,52.86
2023-04-13T00:02:49.731Z,52.69
2023-04-13T00:05:17.026Z,53.20
2023-04-13T00:07:44.239Z,52.88
2023-04-13T00:10:11.495Z,53.15
2023-04-13T00:12:39.653Z,53.13
2023-04-13T00:15:08.061Z,53.32
2023-04-13T00:17:35.981Z,53.20
2023-04-13T00:20:03.216Z,53.21
2023-04-13T00:22:30.319Z,53.30
2023-04-13T00:24:57.534Z,53.33
2023-04-13T00:27:24.800Z,53.47
2023-04-13T00:29:52.108Z,53.44
2023-04-13T00:32:19.266Z,53.60
2023-04-13T00:34:46.398Z,53.49
2023-04-13T00:37:13.806Z,53.40
2023-04-13T00:39:41.737Z,53.49
2023-04-13T00:42:09.154Z,53.78
2023-04-13T00:44:36.693Z,53.70
2023-04-13T00:47:05.222Z,53.63
2023-04-13T00:49:36.178Z,53.65
2023-04-13T00:52:03.831Z,53.72
2023-04-13T00:54:32.772Z,53.66
2023-04-13T00:57:01.155Z,53.59
2023-04-13T00:59:29.512Z,53.76
2023-04-13T01:01:56.814Z,53.90
2023-04-13T01:04:26.022Z,53.81
2023-04-13T01:07:21.107Z,53.79
2023-04-13T01:10:28.365Z,54.09
2023-04-13T01:13:10.537Z,54.46
2023-04-13T01:15:44.379Z,54.86
2023-04-13T01:18:14.405Z,55.13
2023-04-13T01:20:46.217Z,55.31
2023-04-13T01:23:56.550Z,55.57
2023-04-13T01:26:32.430Z,55.79
2023-04-13T01:28:59.622Z,56.02
2023-04-13T01:31:27.310Z,56.03
2023-04-13T01:33:54.575Z,56.09
2023-04-13T01:36:22.406Z,56.06
2023-04-13T01:38:49.709Z,56.01
2023-04-13T01:41:16.862Z,56.29
2023-04-13T01:43:44.778Z,56.34
2023-04-13T01:46:13.933Z,55.93
2023-04-13T01:48:51.954Z,56.44
2023-04-13T01:51:24.861Z,56.53
2023-04-13T01:54:19.381Z,56.41
2023-04-13T01:56:48.006Z,56.90
2023-04-13T01:59:16.148Z,56.69
2023-04-13T02:01:43.634Z,56.52
2023-04-13T02:04:11.204Z,56.70
2023-04-13T02:06:38.615Z,56.74
2023-04-13T02:09:05.823Z,57.00
2023-04-13T02:11:34.574Z,56.63
2023-04-13T02:14:01.742Z,56.71
2023-04-13T02:16:28.957Z,56.73
2023-04-13T02:18:56.161Z,56.78
2023-04-13T02:21:23.671Z,57.11
2023-04-13T02:23:50.878Z,57.07
2023-04-13T02:26:18.254Z,57.07
2023-04-13T02:28:45.556Z,57.17
2023-04-13T02:31:12.878Z,57.47
2023-04-13T02:33:40.011Z,57.52
2023-04-13T02:36:08.148Z,57.43
2023-04-13T02:38:35.508Z,57.68
2023-04-13T02:41:03.054Z,57.69
2023-04-13T02:43:30.420Z,57.44
2023-04-13T02:45:58.058Z,57.53
2023-04-13T02:48:25.350Z,57.60
2023-04-13T02:50:54.213Z,57.59
2023-04-13T02:53:21.576Z,57.60
2023-04-13T02:55:48.960Z,57.57
2023-04-13T02:58:16.117Z,57.50
2023-04-13T03:00:43.236Z,57.38
2023-04-13T03:03:10.392Z,57.79
2023-04-13T03:05:38.150Z,57.86
2023-04-13T03:08:05.448Z,58.01
2023-04-13T03:10:32.644Z,57.88
2023-04-13T03:12:59.922Z,57.97
2023-04-13T03:15:27.564Z,58.11
2023-04-13T03:17:54.942Z,57.96
2023-04-13T03:20:22.386Z,58.07
2023-04-13T03:22:49.692Z,58.14
2023-04-13T03:25:17.042Z,57.96
2023-04-13T03:27:44.166Z,58.13
2023-04-13T03:30:11.937Z,58.00
2023-04-13T03:32:39.241Z,57.89
2023-04-13T03:35:06.891Z,57.92
2023-04-13T03:37:34.233Z,57.68
2023-04-13T03:40:01.728Z,57.81
2023-04-13T03:42:30.453Z,57.94
2023-04-13T03:44:58.634Z,58.15
2023-04-13T03:47:26.000Z,58.49
2023-04-13T03:49:53.425Z,58.34
2023-04-13T03:52:20.654Z,58.44
2023-04-13T03:54:47.879Z,58.46
2023-04-13T03:57:15.182Z,58.60
2023-04-13T03:59:42.364Z,58.30
2023-04-13T04:02:09.552Z,58.39
2023-04-13T04:04:36.791Z,58.10
2023-04-13T04:07:03.993Z,57.97
2023-04-13T04:09:31.719Z,58.01
2023-04-13T04:11:59.230Z,58.16
2023-04-13T04:14:26.378Z,57.98
2023-04-13T04:16:53.626Z,57.92
2023-04-13T04:19:20.859Z,57.77
2023-04-13T04:21:48.505Z,57.75
2023-04-13T04:24:17.475Z,57.63
2023-04-13T04:26:45.377Z,57.84
2023-04-13T04:29:12.588Z,58.06
2023-04-13T04:31:41.261Z,57.89
2023-04-13T04:34:08.447Z,58.22
2023-04-13T04:36:35.626Z,58.12
2023-04-13T04:39:03.059Z,57.41
2023-04-13T04:41:30.340Z,57.18
2023-04-13T04:43:57.717Z,57.28
2023-04-13T04:46:25.517Z,57.12
2023-04-13T04:48:54.433Z,57.09
2023-04-13T04:51:21.769Z,57.31
2023-04-13T04:53:49.267Z,57.62
2023-04-13T04:56:16.492Z,57.13
2023-04-13T04:58:43.686Z,56.99
2023-04-13T05:01:10.892Z,57.02
2023-04-13T05:03:38.323Z,56.78
2023-04-13T05:06:05.919Z,56.63
2023-04-13T05:08:33.275Z,56.70
2023-04-13T05:11:00.459Z,56.76
2023-04-13T05:13:27.685Z,56.91
2023-04-13T05:15:54.963Z,57.05
2023-04-13T05:18:22.202Z,56.87
2023-04-13T05:20:49.273Z,56.84
2023-04-13T05:23:16.454Z,57.33
2023-04-13T05:25:43.619Z,57.60
2023-04-13T05:28:10.748Z,57.71
2023-04-13T05:30:37.887Z,57.59
2023-04-13T05:33:05.326Z,57.93
2023-04-13T05:35:32.571Z,57.99
2023-04-13T05:37:59.795Z,57.81
2023-04-13T05:40:27.069Z,58.09
2023-04-13T05:42:54.257Z,58.25
2023-04-13T05:45:21.765Z,58.81
2023-04-13T05:47:49.153Z,60.10
2023-04-13T05:50:16.347Z,60.70
2023-04-13T05:52:43.567Z,59.88
2023-04-13T05:55:11.193Z,59.86
2023-04-13T05:57:38.393Z,59.98
2023-04-13T06:00:06.648Z,59.90
2023-04-13T06:02:33.888Z,59.99
2023-04-13T06:05:01.338Z,60.53
2023-04-13T06:07:28.774Z,60.30
2023-04-13T06:09:55.960Z,60.85
2023-04-13T06:12:23.109Z,61.22
2023-04-13T06:14:50.644Z,60.87
2023-04-13T06:17:17.840Z,60.99
2023-04-13T06:19:44.996Z,61.42
2023-04-13T06:22:12.165Z,61.99
2023-04-13T06:24:39.242Z,62.56
2023-04-13T06:27:06.426Z,62.80
2023-04-13T06:29:33.681Z,62.43
2023-04-13T06:32:00.798Z,62.61
2023-04-13T06:34:27.974Z,61.85
2023-04-13T06:36:55.107Z,61.97
2023-04-13T06:39:22.223Z,62.09
2023-04-13T06:41:49.501Z,62.19
2023-04-13T06:44:18.396Z,62.46
2023-04-13T06:46:45.579Z,62.00
2023-04-13T06:49:13.059Z,62.06
2023-04-13T06:51:40.521Z,62.05
2023-04-13T06:54:07.989Z,62.14
2023-04-13T06:56:35.142Z,61.98
2023-04-13T06:59:02.919Z,62.17
2023-04-13T07:01:30.714Z,62.85
2023-04-13T07:03:58.001Z,63.16
2023-04-13T07:06:25.419Z,63.32
2023-04-13T07:08:52.573Z,62.68
2023-04-13T07:11:20.197Z,62.68
2023-04-13T07:13:47.500Z,62.73
2023-04-13T07:16:14.699Z,62.70
2023-04-13T07:18:41.898Z,62.36
2023-04-13T11:26:16.893Z,60.58
2023-04-13T11:28:47.914Z,59.95
2023-04-13T11:31:15.087Z,60.07
2023-04-13T11:33:42.300Z,60.10
2023-04-13T11:36:10.165Z,59.98
2023-04-13T11:38:40.495Z,59.47
2023-04-13T11:41:16.408Z,59.44
2023-04-13T11:43:45.446Z,59.29
2023-04-13T11:46:12.977Z,59.73
2023-04-13T11:48:41.146Z,59.38
2023-04-13T11:51:09.414Z,59.20
2023-04-13T11:53:36.702Z,58.73
2023-04-13T11:56:04.497Z,58.95
2023-04-13T11:58:32.197Z,58.77
2023-04-13T12:01:13.744Z,58.73
2023-04-13T12:03:56.844Z,58.93
2023-04-13T12:06:31.474Z,58.98
2023-04-13T12:09:10.124Z,58.75
2023-04-13T12:11:44.275Z,58.51
2023-04-13T12:19:27.512Z,58.56
2023-04-13T12:21:55.944Z,58.47
2023-04-13T12:24:35.102Z,58.11
2023-04-13T12:29:38.639Z,58.32
2023-04-13T12:32:13.838Z,58.66
2023-04-13T12:34:42.086Z,58.83
2023-04-13T12:37:11.076Z,58.67
2023-04-13T12:39:38.436Z,58.37
2023-04-13T12:42:05.838Z,58.06
2023-04-13T12:44:34.298Z,58.83
2023-04-13T12:47:02.068Z,59.55
2023-04-13T12:49:29.806Z,59.93
2023-04-13T12:51:57.261Z,60.00
2023-04-13T12:54:24.479Z,59.24
2023-04-13T12:56:51.631Z,59.41
2023-04-13T12:59:19.067Z,59.91
2023-04-13T13:01:46.387Z,60.44
2023-04-13T13:04:13.807Z,60.23
2023-04-13T13:06:41.056Z,60.37
2023-04-13T13:09:08.361Z,59.86
2023-04-13T13:11:35.764Z,60.67
2023-04-13T13:14:03.134Z,60.96
2023-04-13T13:16:31.308Z,60.44
2023-04-13T13:18:58.696Z,60.07
2023-04-13T13:21:26.342Z,60.23
2023-04-13T13:23:53.817Z,60.34
2023-04-13T13:26:24.484Z,60.20
2023-04-13T13:28:53.746Z,60.55
2023-04-13T13:31:21.159Z,60.27
2023-04-13T13:33:48.599Z,60.09
2023-04-13T13:36:16.122Z,59.62
2023-04-13T13:38:43.880Z,59.47
2023-04-13T13:41:11.239Z,59.61
2023-04-13T13:43:39.505Z,59.01
2023-04-13T13:46:07.084Z,59.21
2023-04-13T13:48:34.401Z,59.58
2023-04-13T13:51:01.626Z,59.33
2023-04-13T13:53:28.931Z,59.22
2023-04-13T13:55:56.208Z,59.08
2023-04-13T13:58:23.514Z,59.10
2023-04-13T14:00:50.749Z,59.72
2023-04-13T14:03:18.161Z,59.12
2023-04-13T14:05:45.510Z,59.06
2023-04-13T14:08:12.671Z,59.11
2023-04-13T14:10:40.236Z,58.79
2023-04-13T14:13:07.564Z,59.07
2023-04-13T14:15:34.864Z,58.66
2023-04-13T14:18:10.442Z,58.29
2023-04-13T14:20:39.613Z,58.48
2023-04-13T14:23:07.867Z,58.34
2023-04-13T14:25:35.280Z,57.94
2023-04-13T14:28:02.753Z,58.32
2023-04-13T14:30:30.084Z,58.10
2023-04-13T14:32:57.321Z,58.51
2023-04-13T14:35:24.619Z,58.38
2023-04-13T14:37:52.076Z,58.30
2023-04-13T14:40:19.673Z,58.36
2023-04-13T14:42:46.942Z,57.61
2023-04-13T14:45:14.246Z,57.94
2023-04-13T14:47:41.505Z,57.50
2023-04-13T14:50:09.319Z,56.77
2023-04-13T14:52:36.755Z,56.61
2023-04-13T14:55:04.890Z,56.93
2023-04-13T14:57:32.237Z,57.56
2023-04-13T14:59:59.458Z,57.55
2023-04-13T15:02:28.352Z,58.34
2023-04-13T15:04:56.068Z,58.89
2023-04-13T15:07:23.481Z,59.01
2023-04-13T15:09:50.761Z,58.72
2023-04-13T15:12:18.040Z,58.82
2023-04-13T15:14:45.993Z,58.76
2023-04-13T15:19:41.010Z,59.09
2023-04-13T15:22:09.122Z,58.65
2023-04-13T15:24:36.300Z,58.63
2023-04-13T15:27:03.563Z,58.75
2023-04-13T15:29:31.009Z,58.72
2023-04-13T15:31:58.941Z,58.63
2023-04-13T15:34:26.216Z,59.10
2023-04-13T15:36:53.948Z,58.71
2023-04-13T15:39:21.254Z,58.62
2023-04-13T15:41:49.021Z,58.51
2023-04-13T15:44:16.523Z,58.36
2023-04-13T15:46:44.029Z,58.75
2023-04-13T15:49:11.276Z,58.59
2023-04-13T15:51:38.515Z,58.36
2023-04-13T15:54:05.994Z,58.53
2023-04-13T15:56:33.248Z,58.46
2023-04-13T15:59:00.745Z,58.60
2023-04-13T16:01:28.303Z,58.10
2023-04-13T16:03:55.825Z,58.66
2023-04-13T16:06:23.271Z,59.08
2023-04-13T16:08:50.445Z,59.01
2023-04-13T16:11:17.711Z,59.02
2023-04-13T16:13:48.988Z,59.10
2023-04-13T16:16:17.325Z,59.31
2023-04-13T16:18:44.584Z,59.42
2023-04-13T16:21:11.782Z,59.24
2023-04-13T16:23:39.046Z,59.51
2023-04-13T16:26:09.610Z,59.09
2023-04-13T16:28:37.007Z,59.27
2023-04-13T16:31:08.508Z,59.44
2023-04-13T16:33:35.786Z,59.17
2023-04-13T16:36:03.011Z,59.59
2023-04-13T16:38:30.352Z,59.25
2023-04-13T16:40:57.769Z,59.75
2023-04-13T16:43:24.922Z,59.89
2023-04-13T16:45:52.177Z,59.74
2023-04-13T16:48:19.947Z,59.14
2023-04-13T16:50:47.410Z,59.37
2023-04-13T16:53:15.058Z,59.66
2023-04-13T16:55:42.470Z,59.83
2023-04-13T16:58:10.107Z,59.78
2023-04-13T17:00:37.543Z,59.47
2023-04-13T17:03:05.126Z,59.87
2023-04-13T17:05:32.561Z,59.36
2023-04-13T17:08:00.184Z,59.67
2023-04-13T17:10:27.735Z,59.58
2023-04-13T17:12:55.522Z,59.40
2023-04-13T17:15:23.499Z,59.79
2023-04-13T17:17:50.689Z,59.53
2023-04-13T17:20:18.755Z,59.27
2023-04-13T17:22:47.335Z,59.50
2023-04-13T17:25:15.164Z,59.48
2023-04-13T17:27:42.426Z,59.41
2023-04-13T17:30:10.597Z,59.33
2023-04-13T17:32:38.554Z,59.75
2023-04-13T17:35:06.855Z,59.43
2023-04-13T17:37:34.578Z,59.66
2023-04-13T17:40:02.034Z,59.72
2023-04-13T17:42:29.238Z,60.12
2023-04-13T17:44:56.642Z,59.58
2023-04-13T17:47:24.633Z,60.14
2023-04-13T17:49:51.973Z,60.03
2023-04-13T17:52:19.905Z,60.07
2023-04-13T17:54:50.469Z,60.06
2023-04-13T17:57:18.001Z,60.02
2023-04-13T17:59:45.267Z,60.18
2023-04-13T18:02:12.920Z,60.03
2023-04-13T18:04:40.736Z,60.02
2023-04-13T18:07:08.078Z,59.81
2023-04-13T18:09:35.744Z,60.06
2023-04-13T18:12:05.417Z,59.63
2023-04-13T18:14:33.040Z,60.02
2023-04-13T18:17:03.408Z,59.83
2023-04-13T18:19:34.066Z,59.82
2023-04-13T18:22:01.680Z,59.83
2023-04-13T18:24:29.190Z,59.83
2023-04-13T18:26:56.370Z,60.07
2023-04-13T18:29:23.634Z,59.99
2023-04-13T18:31:51.079Z,60.39
2023-04-13T18:34:18.348Z,59.93
2023-04-13T18:36:46.178Z,60.26
2023-04-13T18:39:13.328Z,60.25
2023-04-13T18:41:42.259Z,59.89
2023-04-13T18:44:09.867Z,59.71
2023-04-13T18:46:37.111Z,59.70
2023-04-13T18:49:04.906Z,59.48
2023-04-13T18:51:32.770Z,59.68
2023-04-13T18:54:00.371Z,59.73
2023-04-13T18:56:28.392Z,59.83
2023-04-13T18:58:55.807Z,59.69
2023-04-13T19:01:23.431Z,59.64
2023-04-13T19:03:51.001Z,59.78
2023-04-13T19:06:19.736Z,59.67
2023-04-13T19:08:47.129Z,60.05
2023-04-13T19:11:14.959Z,60.20
2023-04-13T19:13:42.527Z,59.98
2023-04-13T19:16:11.785Z,60.34
2023-04-13T19:18:39.137Z,60.48
2023-04-13T19:21:06.400Z,60.76
2023-04-13T19:23:34.000Z,61.70
2023-04-13T19:26:01.462Z,61.71
2023-04-13T19:28:28.922Z,61.48
2023-04-13T19:30:56.479Z,61.09
2023-04-13T19:33:24.157Z,60.88
2023-04-13T19:35:52.257Z,60.75
2023-04-13T19:38:19.997Z,60.65
2023-04-13T19:40:47.421Z,60.45
2023-04-13T19:43:14.866Z,60.44
2023-04-13T19:45:42.747Z,60.34
2023-04-13T19:48:10.229Z,60.82
2023-04-13T19:50:37.376Z,60.85
2023-04-13T19:53:05.397Z,60.13
2023-04-13T19:55:32.718Z,60.43
2023-04-13T19:58:00.576Z,60.24
2023-04-13T20:00:27.800Z,60.16
2023-04-13T20:02:55.618Z,60.13
2023-04-13T20:05:23.253Z,60.00
2023-04-13T20:07:50.949Z,59.82
2023-04-13T20:10:18.114Z,59.95
2023-04-13T20:12:46.106Z,60.09
2023-04-13T20:15:13.664Z,60.18
2023-04-13T20:17:41.611Z,60.14
2023-04-13T20:20:09.574Z,60.24
2023-04-13T20:22:37.255Z,60.03
2023-04-13T20:25:06.061Z,60.57
2023-04-13T20:27:33.998Z,60.31
2023-04-13T20:30:01.295Z,60.39
2023-04-13T20:32:28.552Z,60.21
2023-04-13T20:34:56.449Z,60.96
2023-04-13T20:37:24.166Z,61.02
2023-04-13T20:39:51.502Z,60.73
2023-04-13T20:42:20.535Z,60.43
2023-04-13T20:44:47.942Z,60.60
2023-04-13T20:47:16.527Z,60.78
2023-04-13T20:49:43.793Z,61.10
2023-04-13T20:52:11.247Z,60.72
2023-04-13T20:54:39.107Z,60.51
2023-04-13T20:57:06.572Z,60.31
2023-04-13T20:59:33.992Z,60.15
2023-04-13T21:02:01.479Z,59.47
2023-04-13T21:04:29.230Z,59.72
2023-04-13T21:06:56.661Z,59.93
2023-04-13T21:09:24.037Z,59.94
2023-04-13T21:11:51.639Z,59.60
2023-04-13T21:14:19.373Z,59.65
2023-04-13T21:16:47.206Z,59.92
2023-04-13T21:19:14.832Z,60.12
2023-04-13T21:21:42.041Z,60.11
2023-04-13T21:24:10.095Z,60.02
2023-04-13T21:26:37.591Z,59.87
2023-04-13T21:29:05.001Z,60.09
2023-04-13T21:31:32.578Z,61.18
2023-04-13T21:34:00.400Z,61.58
2023-04-13T21:38:58.585Z,61.87
2023-04-13T21:41:26.426Z,61.73
2023-04-13T21:43:53.857Z,62.40
2023-04-13T21:46:21.421Z,62.45
2023-04-13T21:48:49.154Z,62.69
2023-04-13T21:51:16.499Z,62.44
2023-04-13T21:53:43.879Z,62.23
2023-04-13T21:56:11.175Z,62.08
2023-04-13T21:58:46.217Z,62.15
2023-04-13T22:01:14.821Z,62.39
2023-04-13T22:03:46.654Z,62.40
2023-04-13T22:06:14.756Z,62.45
2023-04-13T22:08:42.056Z,62.37
2023-04-13T22:11:09.592Z,62.26
2023-04-13T22:13:36.955Z,61.80
2023-04-13T22:16:04.721Z,61.67
2023-04-13T22:18:32.054Z,61.68
2023-04-13T22:21:00.045Z,61.17
2023-04-13T22:23:27.739Z,61.47
2023-04-13T22:25:56.844Z,61.51
2023-04-13T22:28:25.473Z,61.75
2023-04-13T22:30:53.188Z,62.69
2023-04-13T22:33:21.224Z,62.87
2023-04-13T22:35:48.563Z,62.99
2023-04-13T22:38:19.247Z,62.53
2023-04-13T22:40:46.507Z,62.50
2023-04-13T22:43:13.730Z,62.39
2023-04-13T22:45:40.914Z,62.04
2023-04-13T22:48:08.186Z,62.34
2023-04-13T22:50:37.590Z,62.54
2023-04-13T22:53:05.050Z,62.05
2023-04-13T22:55:32.304Z,61.95
2023-04-13T22:57:59.577Z,62.04
2023-04-13T23:00:26.759Z,61.87
2023-04-13T23:02:54.112Z,61.55
2023-04-13T23:05:21.919Z,61.96
2023-04-13T23:07:50.292Z,61.91
2023-04-13T23:10:18.025Z,61.35
2023-04-13T23:12:46.514Z,61.54
2023-04-13T23:15:14.611Z,61.74
2023-04-13T23:17:41.945Z,61.57
2023-04-13T23:20:09.628Z,61.12
2023-04-13T23:22:37.710Z,61.50
2023-04-13T23:25:06.023Z,61.19
2023-04-13T23:27:33.547Z,61.12
2023-04-13T23:30:00.941Z,60.98
2023-04-13T23:32:28.157Z,61.12
2023-04-13T23:34:55.426Z,61.54
2023-04-13T23:37:22.991Z,60.98
2023-04-13T23:39:50.200Z,60.94
2023-04-13T23:42:20.566Z,61.17
2023-04-13T23:44:48.325Z,61.52
2023-04-13T23:47:15.813Z,61.53
2023-04-13T23:49:43.237Z,61.93
2023-04-13T23:52:10.545Z,61.97
2023-04-13T23:54:38.009Z,62.36
2023-04-13T23:57:05.267Z,62.41
2023-04-13T23:59:32.947Z,62.73
